M I D A S
Marine Information and Data Acquisition System
Tripno 2147 of the Zeeleeuw from 2011-07-18 07:07:04 to 2011-07-18 13:53:03
Back to CruiseResearch ActivitiesStationsMapUnderway DataData graphs

EquipmentUnitsComment
TimeDGPSUTC
LatitudeDGPSDM.mWGS84
LongitudeDGPSDM.mWGS84
TemperatureSBE03/SBE38deg celciusITS90
ConductivitySBE21S/mITS90
SalinitySBE21 Practical Salinity Units
ChlorophylAChelsea fluorimeterg/lCalibrated in Aceton
Missing or incorrect values are displayed as -999
Sea surface data collected by the RV Zeeleeuw from 2011-07-18 06:54:56 to 2011-07-18 15:36:40
Time Latitude Longitude Temperature Conductivity Salinity ChlorophylA
2011-07-18 06:56:06 51°13.658 2°55.941 19.8895 0.006316 0.038905 -3.020363
2011-07-18 06:57:06 51°13.679 2°55.844 19.906 0.006316 0.038904 -3.020363
2011-07-18 06:58:06 51°13.691 2°55.768 19.9278 0.006316 0.038904 -3.020363
2011-07-18 06:59:06 51°13.7 2°55.769 19.8539 0.006316 0.038904 -3.020363
2011-07-18 07:00:06 51°13.698 2°55.755 19.9488 0.006316 0.038904 -3.020363
2011-07-18 07:01:06 51°13.784 2°55.683 19.8597 0.006316 0.038903 -3.020363
2011-07-18 07:02:06 51°13.907 2°55.58 19.8802 0.006316 0.038903 -3.020363
2011-07-18 07:03:05 51°14.041 2°55.484 19.8683 0.006316 0.038902 -3.020363
2011-07-18 07:04:06 51°14.182 2°55.38 19.911 0.006316 0.038902 -3.020363
2011-07-18 07:05:04 51°14.314 2°55.249 19.812 0.006316 0.038901 -3.020363
2011-07-18 07:06:04 51°14.458 2°55.094 19.839 0.006316 0.038901 -3.020363
2011-07-18 07:07:02 51°14.602 2°54.906 19.7573 0.006316 0.0389 -3.020363
2011-07-18 07:08:02 51°14.778 2°54.725 17.7616 4.119638 30.093811 -3.020363
2011-07-18 07:09:02 51°14.965 2°54.569 17.449 4.316233 32.850122 -3.020363
2011-07-18 07:10:02 51°15.153 2°54.429 17.3729 4.372029 33.499513 -3.020363
2011-07-18 07:11:02 51°15.357 2°54.382 17.3143 4.380534 33.616231 -3.020363
2011-07-18 07:12:02 51°15.567 2°54.342 17.3029 4.392877 33.764284 -3.020363
2011-07-18 07:13:02 51°15.772 2°54.285 17.2814 4.392255 33.781692 -3.020363
2011-07-18 07:14:03 51°15.976 2°54.338 17.2655 4.422438 34.043568 -3.020363
2011-07-18 07:15:02 51°16.139 2°54.356 17.2552 4.445568 34.263316 -3.020363
2011-07-18 07:16:03 51°16.224 2°54.301 17.2488 4.455941 34.358286 -3.020363
2011-07-18 07:17:02 51°16.258 2°54.272 17.2466 4.456253 34.369162 -3.020363
2011-07-18 07:18:02 51°16.264 2°54.272 17.2357 4.460195 34.407985 -3.020363
2011-07-18 07:19:02 51°16.269 2°54.275 17.2321 4.459572 34.407394 -3.020363
2011-07-18 07:20:03 51°16.271 2°54.281 17.2294 4.458639 34.402064 -3.020363
2011-07-18 07:21:02 51°16.272 2°54.287 17.2244 4.45978 34.418761 -3.020363
2011-07-18 07:22:03 51°16.274 2°54.292 17.2186 4.459054 34.415223 -3.020363
2011-07-18 07:23:03 51°16.276 2°54.293 17.2178 4.458535 34.412793 -3.020363
2011-07-18 07:24:02 51°16.313 2°54.258 17.2155 4.458535 34.416898 -3.020363
2011-07-18 07:25:03 51°16.38 2°54.104 17.216 4.457913 34.412203 -3.020363
2011-07-18 07:26:02 51°16.45 2°53.849 17.2279 4.458846 34.418903 -3.020363
2011-07-18 07:27:02 51°16.554 2°53.58 17.2388 4.463099 34.441284 -3.020363
2011-07-18 07:28:02 51°16.686 2°53.339 17.2195 4.465692 34.461638 -3.020363
2011-07-18 07:29:02 51°16.852 2°53.142 17.182 4.467664 34.49855 -3.020363
2011-07-18 07:30:02 51°17.012 2°52.944 17.1567 4.468805 34.541388 -3.020363
2011-07-18 07:31:02 51°17.168 2°52.726 17.1338 4.470984 34.57952 -3.020363
2011-07-18 07:32:03 51°17.336 2°52.53 17.1238 4.469428 34.579821 -3.020363
2011-07-18 07:33:02 51°17.517 2°52.381 17.1097 4.467872 34.578056 -3.020363
2011-07-18 07:34:02 51°17.712 2°52.284 17.1318 4.465902 34.5658 -3.020363
2011-07-18 07:35:02 51°17.896 2°52.146 17.1888 4.464449 34.527052 -3.020363
2011-07-18 07:36:02 51°18.059 2°51.956 17.2368 4.463618 34.472484 -3.020363
2011-07-18 07:37:03 51°18.206 2°51.719 17.2509 4.464448 34.446092 -3.020363
2011-07-18 07:38:02 51°18.347 2°51.485 17.2405 4.4659 34.453847 -3.020363
2011-07-18 07:39:02 51°18.484 2°51.239 17.223 4.466833 34.472868 -3.020363
2011-07-18 07:40:02 51°18.546 2°51.041 17.2141 4.469323 34.50604 -3.020363
2011-07-18 07:41:02 51°18.564 2°50.988 17.2071 4.469012 34.511583 -3.020363
2011-07-18 07:42:04 51°18.572 2°50.991 17.1988 4.470153 34.526943 -3.020363
2011-07-18 07:43:03 51°18.577 2°50.994 17.1951 4.47005 34.532915 -3.020363
2011-07-18 07:44:02 51°18.581 2°50.999 17.1891 4.470672 34.541048 -3.020363
2011-07-18 07:45:02 51°18.583 2°51.002 17.1895 4.47088 34.546279 -3.020363
2011-07-18 07:46:02 51°18.584 2°51.007 17.1856 4.47088 34.548342 -3.020363
2011-07-18 07:47:02 51°18.584 2°51.013 17.1856 4.468909 34.529913 -3.020363
2011-07-18 07:48:02 51°18.585 2°51.021 17.1872 4.472747 34.5645 -3.020363
2011-07-18 07:49:02 51°18.586 2°51.027 17.1839 4.472747 34.5645 -3.020363
2011-07-18 07:50:02 51°18.619 2°51.026 17.1857 4.472954 34.568359 -3.020363
2011-07-18 07:51:02 51°18.65 2°51.09 17.1875 4.473369 34.567822 -3.020363
2011-07-18 07:52:02 51°18.605 2°51.164 17.1884 4.473888 34.569559 -3.020363
2011-07-18 07:53:02 51°18.472 2°51.273 17.1978 4.472643 34.556725 -3.020363
2011-07-18 07:54:02 51°18.3 2°51.435 17.2057 4.471813 34.539238 -3.020363
2011-07-18 07:55:02 51°18.123 2°51.594 17.2355 4.470983 34.525194 -3.020363
2011-07-18 07:56:02 51°17.936 2°51.726 17.2519 4.466937 34.471025 -3.020363
2011-07-18 07:57:02 51°17.749 2°51.852 17.2723 4.464862 34.429841 -3.020363
2011-07-18 07:58:02 51°17.56 2°51.982 17.2887 4.461439 34.384587 -3.020363
2011-07-18 07:59:02 51°17.369 2°52.116 17.2458 4.461024 34.383736 -3.020363
2011-07-18 08:00:03 51°17.177 2°52.256 17.1681 4.461543 34.433315 -3.020363
2011-07-18 08:01:02 51°16.994 2°52.388 17.1331 4.462166 34.48668 -3.020363
2011-07-18 08:02:02 51°16.808 2°52.525 17.1522 4.461026 34.489165 -3.020363
2011-07-18 08:03:02 51°16.62 2°52.657 17.1572 4.462893 34.509453 -3.020363
2011-07-18 08:04:02 51°16.427 2°52.776 17.1495 4.462893 34.503955 -3.020363
2011-07-18 08:05:02 51°16.237 2°52.903 17.1857 4.464864 34.511395 -3.020363
2011-07-18 08:06:03 51°16.046 2°53.034 17.2193 4.463929 34.469005 -3.020363
2011-07-18 08:07:02 51°15.858 2°53.156 17.2348 4.461958 34.423901 -3.020363
2011-07-18 08:08:02 51°15.671 2°53.286 17.2313 4.460713 34.412465 -3.020363
2011-07-18 08:09:02 51°15.489 2°53.434 17.2458 4.456771 34.375689 -3.020363
2011-07-18 08:10:02 51°15.303 2°53.568 17.2541 4.457809 34.381232 -3.020363
2011-07-18 08:11:02 51°15.106 2°53.656 17.259 4.432188 34.156714 -3.020363
2011-07-18 08:12:02 51°14.907 2°53.738 17.2496 4.419119 34.043337 -3.020363
2011-07-18 08:13:02 51°14.703 2°53.774 17.2602 4.411858 33.982102 -3.020363
2011-07-18 08:14:02 51°14.494 2°53.76 17.2635 4.407813 33.943196 -3.020363
2011-07-18 08:15:02 51°14.302 2°53.604 17.2511 4.405117 33.920634 -3.020363
2011-07-18 08:16:02 51°14.166 2°53.329 17.2598 4.403976 33.909458 -3.020363
2011-07-18 08:17:02 51°14.052 2°53.03 17.2647 4.407917 33.942742 -3.020363
2011-07-18 08:18:02 51°13.926 2°52.741 17.2574 4.410406 33.964192 -3.020363
2011-07-18 08:19:02 51°13.797 2°52.455 17.2558 4.408124 33.942509 -3.020363
2011-07-18 08:20:02 51°13.662 2°52.178 17.2561 4.38987 33.783276 -3.020363
2011-07-18 08:21:02 51°13.539 2°51.885 17.247 4.381677 33.720108 -3.020363
2011-07-18 08:22:02 51°13.422 2°51.587 17.2189 4.381988 33.729481 -3.020363
2011-07-18 08:23:02 51°13.301 2°51.292 17.1785 4.393812 33.860221 -3.020363
2011-07-18 08:24:02 51°13.183 2°50.995 17.1595 4.404495 33.978688 -3.020363
2011-07-18 08:25:02 51°13.064 2°50.699 17.1564 4.409163 34.030491 -3.020363
2011-07-18 08:26:03 51°12.949 2°50.393 17.1497 4.412482 34.066618 -3.020363
2011-07-18 08:27:02 51°12.843 2°50.094 17.1316 4.412793 34.076769 -3.020363
2011-07-18 08:28:02 51°12.73 2°49.793 17.1663 4.417357 34.116212 -3.020363
2011-07-18 08:29:02 51°12.636 2°49.474 17.2007 4.432396 34.218304 -3.020363
2011-07-18 08:30:02 51°12.531 2°49.163 17.2239 4.439657 34.257198 -3.020363
2011-07-18 08:31:02 51°12.425 2°48.852 17.2244 4.44505 34.288794 -3.020363
2011-07-18 08:32:02 51°12.335 2°48.531 17.2341 4.44754 34.308929 -3.020363
2011-07-18 08:33:03 51°12.242 2°48.207 17.2207 4.450652 34.330346 -3.020363
2011-07-18 08:34:02 51°12.156 2°47.892 17.1698 4.452208 34.362217 -3.020363
2011-07-18 08:35:03 51°12.076 2°47.557 17.1648 4.452312 34.396624 -3.020363
2011-07-18 08:36:02 51°11.997 2°47.234 17.1584 4.455009 34.42749 -3.020363
2011-07-18 08:37:02 51°11.91 2°46.908 17.1447 4.456876 34.447075 -3.020363
2011-07-18 08:38:02 51°11.827 2°46.579 17.1313 4.457603 34.467772 -3.020363
2011-07-18 08:39:03 51°11.742 2°46.244 17.1327 4.45864 34.485684 -3.020363
2011-07-18 08:40:02 51°11.659 2°45.922 17.1385 4.458433 34.481139 -3.020363
2011-07-18 08:41:03 51°11.581 2°45.587 17.1432 4.460092 34.489327 -3.020363
2011-07-18 08:42:02 51°11.501 2°45.267 17.1559 4.461959 34.499995 -3.020363
2011-07-18 08:43:03 51°11.412 2°44.937 17.1656 4.462789 34.496873 -3.020363
2011-07-18 08:44:03 51°11.347 2°44.601 17.1647 4.461752 34.484462 -3.020363
2011-07-18 08:45:02 51°11.283 2°44.269 17.1607 4.457395 34.447448 -3.020363
2011-07-18 08:46:03 51°11.21 2°43.932 17.1609 4.455113 34.427702 -3.020363
2011-07-18 08:47:02 51°11.148 2°43.603 17.1659 4.455217 34.427229 -3.020363
2011-07-18 08:48:02 51°11.078 2°43.272 17.1644 4.456358 34.436415 -3.020363
2011-07-18 08:49:02 51°11.009 2°42.938 17.1671 4.456565 34.437525 -3.020363
2011-07-18 08:50:02 51°10.946 2°42.601 17.1677 4.458328 34.452096 -3.020363
2011-07-18 08:51:03 51°10.877 2°42.291 17.1751 4.459366 34.4597 -3.020363
2011-07-18 08:52:02 51°10.874 2°42.139 17.1711 4.462374 34.480238 -3.020363
2011-07-18 08:53:02 51°10.939 2°42.111 17.1684 4.462374 34.483669 -3.020363
2011-07-18 08:54:02 51°11.064 2°42.083 17.1698 4.463307 34.492434 -3.020363
2011-07-18 08:55:02 51°11.127 2°42.051 17.1669 4.466212 34.518256 -3.020363
2011-07-18 08:56:02 51°11.136 2°42.04 17.1658 4.467042 34.525438 -3.020363
2011-07-18 08:57:02 51°11.138 2°42.037 17.1675 4.468287 34.536899 -3.020363
2011-07-18 08:58:03 51°11.137 2°42.04 17.1637 4.465071 34.508381 -3.020363
2011-07-18 08:59:02 51°11.133 2°42.042 17.1624 4.469843 34.55243 -3.020363
2011-07-18 09:00:03 51°11.13 2°42.042 17.1612 4.469739 34.554284 -3.020363
2011-07-18 09:01:02 51°11.126 2°42.042 17.1617 4.469531 34.5518 -3.020363
2011-07-18 09:02:02 51°11.145 2°42.017 17.1638 4.468494 34.544196 -3.020363
2011-07-18 09:03:02 51°11.166 2°41.947 17.1625 4.469739 34.553596 -3.020363
2011-07-18 09:04:02 51°11.149 2°41.83 17.1617 4.469324 34.550004 -3.020363
2011-07-18 09:05:02 51°11.077 2°41.608 17.1599 4.472021 34.5706 -3.020363
2011-07-18 09:06:02 51°11.004 2°41.345 17.1576 4.473473 34.586615 -3.020363
2011-07-18 09:07:02 51°10.92 2°41.084 17.1616 4.471606 34.571137 -3.020363
2011-07-18 09:08:02 51°10.842 2°40.818 17.156 4.47254 34.578532 -3.020363
2011-07-18 09:09:02 51°10.764 2°40.55 17.1527 4.471502 34.573681 -3.020363
2011-07-18 09:10:02 51°10.68 2°40.288 17.1539 4.469117 34.555088 -3.020363
2011-07-18 09:11:03 51°10.593 2°40.02 17.1512 4.469635 34.559579 -3.020363
2011-07-18 09:12:02 51°10.513 2°39.759 17.151 4.472851 34.587424 -3.020363
2011-07-18 09:13:02 51°10.434 2°39.492 17.1501 4.473059 34.590599 -3.020363
2011-07-18 09:14:02 51°10.357 2°39.222 17.147 4.472332 34.586377 -3.020363
2011-07-18 09:15:02 51°10.272 2°38.96 17.1448 4.47254 34.59024 -3.020363
2011-07-18 09:16:02 51°10.209 2°38.648 17.1426 4.472436 34.590031 -3.020363
2011-07-18 09:17:02 51°10.188 2°38.309 17.1407 4.472125 34.59147 -3.020363
2011-07-18 09:18:03 51°10.168 2°37.96 17.1343 4.471606 34.590423 -3.020363
2011-07-18 09:19:02 51°10.15 2°37.622 17.1366 4.471814 34.594288 -3.020363
2011-07-18 09:20:03 51°10.14 2°37.275 17.1397 4.472229 34.596504 -3.020363
2011-07-18 09:21:02 51°10.147 2°36.937 17.1312 4.472229 34.597194 -3.020363
2011-07-18 09:22:02 51°10.192 2°36.602 17.1197 4.472229 34.603399 -3.020363
2011-07-18 09:23:02 51°10.242 2°36.274 17.0644 4.470673 34.606471 -3.020363
2011-07-18 09:24:02 51°10.314 2°35.971 16.9817 4.465488 34.621588 -3.020363
2011-07-18 09:25:03 51°10.465 2°35.765 16.9573 4.459161 34.618544 -3.020363
2011-07-18 09:26:02 51°10.646 2°35.681 16.9394 4.457813 34.62623 -3.020363
2011-07-18 09:27:03 51°10.831 2°35.747 16.9196 4.456776 34.629694 -3.020363
2011-07-18 09:28:02 51°10.985 2°35.908 16.8956 4.454909 34.630105 -3.020363
2011-07-18 09:29:03 51°11.138 2°36.09 16.879 4.453042 34.631213 -3.020363
2011-07-18 09:30:02 51°11.286 2°36.269 16.8593 4.450864 34.63309 -3.020363
2011-07-18 09:31:03 51°11.437 2°36.461 16.8416 4.448997 34.629337 -3.020363
2011-07-18 09:32:02 51°11.583 2°36.645 16.8161 4.447338 34.635048 -3.020363
2011-07-18 09:33:02 51°11.736 2°36.823 16.8098 4.445575 34.634987 -3.020363
2011-07-18 09:34:02 51°11.902 2°36.964 16.8081 4.443708 34.62427 -3.020363
2011-07-18 09:35:02 51°12.073 2°37.098 16.8213 4.444745 34.631926 -3.020363
2011-07-18 09:36:03 51°12.252 2°37.21 16.8414 4.445471 34.625726 -3.020363
2011-07-18 09:37:02 51°12.436 2°37.273 16.8681 4.448686 34.632886 -3.020363
2011-07-18 09:38:03 51°12.623 2°37.362 16.8871 4.450968 34.631213 -3.020363
2011-07-18 09:39:02 51°12.81 2°37.358 16.8988 4.451486 34.623221 -3.020363
2011-07-18 09:40:03 51°13.005 2°37.315 16.9101 4.452627 34.623432 -3.020363
2011-07-18 09:41:02 51°13.194 2°37.28 16.9085 4.452834 34.618294 -3.020363
2011-07-18 09:42:03 51°13.392 2°37.251 16.9018 4.446507 34.566684 -3.020363
2011-07-18 09:43:03 51°13.588 2°37.218 16.8922 4.453872 34.63705 -3.020363
2011-07-18 09:44:03 51°13.791 2°37.182 16.8883 4.45325 34.637189 -3.020363
2011-07-18 09:45:03 51°13.988 2°37.14 16.8918 4.453457 34.641081 -3.020363
2011-07-18 09:46:03 51°14.184 2°37.099 16.9107 4.454391 34.642261 -3.020363
2011-07-18 09:47:03 51°14.378 2°37.065 16.9102 4.456154 34.645108 -3.020363
2011-07-18 09:48:02 51°14.568 2°37.035 16.9006 4.456257 34.64879 -3.020363
2011-07-18 09:49:02 51°14.763 2°36.997 16.8927 4.455324 34.650391 -3.020363
2011-07-18 09:50:02 51°14.962 2°36.972 16.8827 4.454702 34.653314 -3.020363
2011-07-18 09:51:02 51°15.163 2°36.945 16.878 4.454287 34.655959 -3.020363
2011-07-18 09:52:02 51°15.364 2°36.91 16.8708 4.454287 34.65735 -3.020363
2011-07-18 09:53:02 51°15.562 2°36.874 16.8571 4.453769 34.662573 -3.020363
2011-07-18 09:54:02 51°15.765 2°36.846 16.8473 4.452731 34.665367 -3.020363
2011-07-18 09:55:02 51°15.964 2°36.854 16.8316 4.451902 34.666489 -3.020363
2011-07-18 09:56:02 51°16.158 2°36.858 16.8049 4.45045 34.668457 -3.020363
2011-07-18 09:57:02 51°16.351 2°36.849 16.7687 4.447753 34.672817 -3.020363
2011-07-18 09:58:02 51°16.528 2°36.829 16.7267 4.444227 34.672036 -3.020363
2011-07-18 09:59:02 51°16.602 2°36.788 16.7065 4.440805 34.672869 -3.020363
2011-07-18 10:00:02 51°16.596 2°36.773 16.693 4.43873 34.671513 -3.020363
2011-07-18 10:01:03 51°16.586 2°36.767 16.6841 4.437797 34.672442 -3.020363
2011-07-18 10:02:02 51°16.578 2°36.765 16.676 4.43676 34.671765 -3.020363
2011-07-18 10:03:02 51°16.568 2°36.763 16.6725 4.436034 34.673112 -3.020363
2011-07-18 10:04:02 51°16.558 2°36.761 16.6724 4.435827 34.671296 -3.020363
2011-07-18 10:05:02 51°16.548 2°36.762 16.6687 4.435619 34.671581 -3.020363
2011-07-18 10:06:02 51°16.536 2°36.764 16.6714 4.435515 34.671374 -3.020363
2011-07-18 10:07:02 51°16.527 2°36.763 16.6659 4.435308 34.672359 -3.020363
2011-07-18 10:08:02 51°16.553 2°36.745 16.6686 4.434375 34.666288 -3.020363
2011-07-18 10:09:02 51°16.615 2°36.771 16.6689 4.434789 34.666419 -3.020363
2011-07-18 10:10:02 51°16.697 2°36.821 16.6668 4.434582 34.666004 -3.020363
2011-07-18 10:11:02 51°16.787 2°36.864 16.6633 4.434478 34.667196 -3.020363
2011-07-18 10:12:02 51°16.856 2°36.967 16.6624 4.434375 34.665588 -3.020363
2011-07-18 10:13:02 51°16.927 2°37.071 16.6604 4.434167 34.664473 -3.020363
2011-07-18 10:14:02 51°17.002 2°37.179 16.6795 4.434478 34.665096 -3.020363
2011-07-18 10:15:02 51°17.07 2°37.298 16.6876 4.435619 34.664581 -3.020363
2011-07-18 10:16:02 51°17.138 2°37.422 16.7032 4.436967 34.665183 -3.020363
2011-07-18 10:17:02 51°17.208 2°37.541 16.7228 4.438523 34.664803 -3.020363
2011-07-18 10:18:02 51°17.28 2°37.659 16.7444 4.440078 34.658135 -3.020363
2011-07-18 10:19:03 51°17.35 2°37.774 16.7777 4.440078 34.636492 -3.020363
2011-07-18 10:20:02 51°17.417 2°37.891 16.7947 4.441737 34.634943 -3.020363
2011-07-18 10:21:03 51°17.5 2°38.002 16.8244 4.442774 34.623786 -3.020363
2011-07-18 10:22:02 51°17.637 2°38.142 16.8181 4.444537 34.618281 -3.020363
2011-07-18 10:23:02 51°17.798 2°38.313 16.8591 4.446819 34.630525 -3.020363
2011-07-18 10:24:02 51°17.927 2°38.545 16.8422 4.446508 34.604861 -3.020363
2011-07-18 10:25:02 51°18.048 2°38.794 16.8358 4.445367 34.617167 -3.020363
2011-07-18 10:26:03 51°18.189 2°39.022 16.8354 4.444745 34.622178 -3.020363
2011-07-18 10:27:02 51°18.333 2°39.232 16.8359 4.444226 34.616263 -3.020363
2011-07-18 10:28:03 51°18.482 2°39.433 16.8413 4.445471 34.614593 -3.020363
2011-07-18 10:29:02 51°18.618 2°39.646 16.868 4.447234 34.614664 -3.020363
2011-07-18 10:30:02 51°18.765 2°39.851 16.8699 4.448789 34.608762 -3.020363
2011-07-18 10:31:02 51°18.913 2°40.038 16.9212 4.451486 34.625305 -3.020363
2011-07-18 10:32:02 51°19.011 2°40.3 16.9237 4.452627 34.610241 -3.020363
2011-07-18 10:33:02 51°19.085 2°40.579 16.977 4.454805 34.611853 -3.020363
2011-07-18 10:34:03 51°19.165 2°40.856 16.977 4.457294 34.609241 -3.020363
2011-07-18 10:35:02 51°19.254 2°41.118 16.9695 4.45885 34.624156 -3.020363
2011-07-18 10:36:03 51°19.35 2°41.382 16.9736 4.458228 34.619438 -3.020363
2011-07-18 10:37:03 51°19.449 2°41.632 16.9907 4.460095 34.62666 -3.020363
2011-07-18 10:38:02 51°19.546 2°41.884 17.0263 4.462584 34.625433 -3.020363
2011-07-18 10:39:03 51°19.647 2°42.144 17.0515 4.464969 34.613626 -3.020363
2011-07-18 10:40:03 51°19.743 2°42.393 17.1061 4.467666 34.608002 -3.020363
2011-07-18 10:41:02 51°19.834 2°42.647 17.1399 4.46974 34.594929 -3.020363
2011-07-18 10:42:02 51°19.922 2°42.903 17.1703 4.472229 34.589612 -3.020363
2011-07-18 10:43:02 51°20.017 2°43.168 17.2136 4.473888 34.575063 -3.020363
2011-07-18 10:44:02 51°20.107 2°43.443 17.2303 4.475028 34.547129 -3.020363
2011-07-18 10:45:02 51°20.213 2°43.692 17.2361 4.477829 34.563788 -3.020363
2011-07-18 10:46:02 51°20.314 2°43.946 17.2736 4.477932 34.54478 -3.020363
2011-07-18 10:47:02 51°20.407 2°44.21 17.2558 4.478866 34.541186 -3.020363
2011-07-18 10:48:03 51°20.518 2°44.465 17.2772 4.480941 34.554304 -3.020363
2011-07-18 10:49:02 51°20.657 2°44.675 17.2965 4.481148 34.547869 -3.020363
2011-07-18 10:50:02 51°20.81 2°44.861 17.2929 4.481563 34.544598 -3.020363
2011-07-18 10:51:02 51°20.953 2°45.066 17.3072 4.481459 34.530005 -3.020363
2011-07-18 10:52:02 51°21.108 2°45.255 17.3157 4.480733 34.524424 -3.020363
2011-07-18 10:53:02 51°21.288 2°45.378 17.3158 4.481355 34.520214 -3.020363
2011-07-18 10:54:02 51°21.469 2°45.492 17.3312 4.483118 34.521059 -3.020363
2011-07-18 10:55:03 51°21.657 2°45.603 17.3283 4.483222 34.511699 -3.020363
2011-07-18 10:56:02 51°21.833 2°45.727 17.345 4.483533 34.519167 -3.020363
2011-07-18 10:57:03 51°22.014 2°45.859 17.3302 4.482496 34.513641 -3.020363
2011-07-18 10:58:02 51°22.185 2°45.991 17.3372 4.48011 34.486921 -3.020363
2011-07-18 10:59:03 51°22.36 2°46.125 17.3869 4.477723 34.447256 -3.020363
2011-07-18 11:00:03 51°22.537 2°46.251 17.403 4.475856 34.420273 -3.020363
2011-07-18 11:01:02 51°22.705 2°46.391 17.4265 4.471083 34.333009 -3.020363
2011-07-18 11:02:03 51°22.89 2°46.485 17.4552 4.468801 34.301195 -3.020363
2011-07-18 11:03:02 51°23.065 2°46.599 17.4882 4.467971 34.271739 -3.020363
2011-07-18 11:04:03 51°23.235 2°46.748 17.481 4.468593 34.258839 -3.020363
2011-07-18 11:05:02 51°23.399 2°46.902 17.4965 4.468386 34.267191 -3.020363
2011-07-18 11:06:03 51°23.565 2°47.062 17.5279 4.467763 34.244291 -3.020363
2011-07-18 11:07:02 51°23.728 2°47.215 17.5747 4.467244 34.20681 -3.020363
2011-07-18 11:08:02 51°23.908 2°47.326 17.5986 4.468488 34.185856 -3.020363
2011-07-18 11:09:03 51°24.092 2°47.435 17.6588 4.469214 34.16789 -3.020363
2011-07-18 11:10:02 51°24.263 2°47.572 17.669 4.470354 34.150151 -3.020363
2011-07-18 11:11:03 51°24.426 2°47.745 17.6741 4.471495 34.151196 -3.020363
2011-07-18 11:12:02 51°24.551 2°47.974 17.6833 4.47274 34.137727 -3.020363
2011-07-18 11:13:03 51°24.686 2°48.206 17.6913 4.474192 34.14545 -3.020363
2011-07-18 11:14:02 51°24.825 2°48.383 17.7005 4.475436 34.148054 -3.020363
2011-07-18 11:15:03 51°24.91 2°48.475 17.6952 4.47637 34.14733 -3.020363
2011-07-18 11:16:03 51°24.938 2°48.48 17.6934 4.47637 34.161385 -3.020363
2011-07-18 11:17:02 51°24.937 2°48.488 17.6988 4.476474 34.162941 -3.020363
2011-07-18 11:18:03 51°24.934 2°48.504 17.6902 4.476681 34.166722 -3.020363
2011-07-18 11:19:03 51°24.93 2°48.52 17.68 4.477096 34.176298 -3.020363
2011-07-18 11:20:02 51°24.927 2°48.534 17.6726 4.476889 34.170505 -3.020363
2011-07-18 11:21:03 51°24.935 2°48.542 17.6732 4.476993 34.175411 -3.020363
2011-07-18 11:22:03 51°25.012 2°48.548 17.6832 4.477719 34.179607 -3.020363
2011-07-18 11:23:02 51°25.173 2°48.556 17.7015 4.47969 34.186398 -3.020363
2011-07-18 11:24:03 51°25.368 2°48.573 17.7052 4.483839 34.202416 -3.020363
2011-07-18 11:25:03 51°25.567 2°48.569 17.6865 4.486225 34.230839 -3.020363
2011-07-18 11:26:03 51°25.764 2°48.543 17.6651 4.486744 34.250033 -3.020363
2011-07-18 11:27:03 51°25.925 2°48.538 17.6511 4.48747 34.271692 -3.020363
2011-07-18 11:28:02 51°25.972 2°48.515 17.6465 4.489026 34.296434 -3.020363
2011-07-18 11:29:03 51°25.974 2°48.527 17.6472 4.489545 34.299526 -3.020363
2011-07-18 11:30:03 51°25.973 2°48.543 17.6325 4.488404 34.296493 -3.020363
2011-07-18 11:31:03 51°25.97 2°48.563 17.6305 4.487885 34.302826 -3.020363
2011-07-18 11:32:02 51°25.969 2°48.578 17.6357 4.487989 34.30102 -3.020363
2011-07-18 11:33:03 51°25.971 2°48.593 17.6404 4.488197 34.300103 -3.020363
2011-07-18 11:34:02 51°25.972 2°48.608 17.6409 4.488404 34.301205 -3.020363
2011-07-18 11:35:03 51°25.97 2°48.628 17.6348 4.488404 34.299185 -3.020363
2011-07-18 11:36:02 51°25.968 2°48.647 17.6348 4.488093 34.299888 -3.020363
2011-07-18 11:37:02 51°25.967 2°48.664 17.639 4.488197 34.301449 -3.020363
2011-07-18 11:38:02 51°25.971 2°48.677 17.6443 4.488404 34.299185 -3.020363
2011-07-18 11:39:02 51°26.009 2°48.686 17.6444 4.488611 34.296922 -3.020363
2011-07-18 11:40:03 51°26.037 2°48.76 17.6466 4.488715 34.295791 -3.020363
2011-07-18 11:41:02 51°26.026 2°48.918 17.6528 4.488715 34.292426 -3.020363
2011-07-18 11:42:02 51°26.012 2°49.122 17.6546 4.489856 34.296805 -3.020363
2011-07-18 11:43:02 51°26.003 2°49.33 17.6596 4.488922 34.284784 -3.020363
2011-07-18 11:44:03 51°26.006 2°49.547 17.6642 4.488196 34.274541 -3.020363
2011-07-18 11:45:03 51°26.015 2°49.762 17.6696 4.487781 34.266961 -3.020363
2011-07-18 11:46:02 51°26.026 2°49.976 17.6763 4.48747 34.258926 -3.020363
2011-07-18 11:47:03 51°26.038 2°50.196 17.6772 4.487158 34.250895 -3.020363
2011-07-18 11:48:02 51°26.03 2°50.426 17.6714 4.486121 34.242029 -3.020363
2011-07-18 11:49:02 51°26.014 2°50.678 17.6493 4.482283 34.217276 -3.020363
2011-07-18 11:50:02 51°25.994 2°50.932 17.6274 4.478653 34.20368 -3.020363
2011-07-18 11:51:02 51°25.974 2°51.182 17.6111 4.474296 34.183865 -3.020363
2011-07-18 11:52:02 51°25.956 2°51.482 17.65 4.468798 34.146897 -3.020363
2011-07-18 11:53:02 51°25.945 2°51.817 17.6772 4.451579 33.958317 -3.020363
2011-07-18 11:54:02 51°25.935 2°52.145 17.6844 4.443799 33.877958 -3.020363
2011-07-18 11:55:02 51°25.939 2°52.477 17.6904 4.436642 33.811603 -3.020363
2011-07-18 11:56:03 51°25.951 2°52.804 17.6953 4.431455 33.763409 -3.020363
2011-07-18 11:57:02 51°25.956 2°53.128 17.696 4.430003 33.745081 -3.020363
2011-07-18 11:58:03 51°25.959 2°53.465 17.699 4.427929 33.72674 -3.020363
2011-07-18 11:59:02 51°25.968 2°53.793 17.7051 4.426062 33.709508 -3.020363
2011-07-18 12:00:03 51°25.981 2°54.126 17.7018 4.424298 33.691844 -3.020363
2011-07-18 12:01:02 51°25.985 2°54.448 17.7089 4.41849 33.643676 -3.020363
2011-07-18 12:02:02 51°25.986 2°54.778 17.72 4.416519 33.617017 -3.020363
2011-07-18 12:03:02 51°25.982 2°55.109 17.7299 4.415482 33.599637 -3.020363
2011-07-18 12:04:02 51°25.98 2°55.444 17.7376 4.416934 33.603452 -3.020363
2011-07-18 12:05:04 51°25.982 2°55.791 17.7449 4.417763 33.605914 -3.020363
2011-07-18 12:06:02 51°25.986 2°56.111 17.7447 4.417556 33.598892 -3.020363
2011-07-18 12:07:03 51°26.006 2°56.453 17.7445 4.41517 33.579251 -3.020363
2011-07-18 12:08:03 51°26.017 2°56.787 17.7477 4.413511 33.562506 -3.020363
2011-07-18 12:09:02 51°26.028 2°57.119 17.7513 4.411332 33.542666 -3.020363
2011-07-18 12:10:02 51°26.033 2°57.46 17.7533 4.411125 33.536968 -3.020363
2011-07-18 12:11:02 51°26.037 2°57.796 17.749 4.411125 33.537623 -3.020363
2011-07-18 12:12:02 51°26.047 2°58.137 17.7476 4.407184 33.505414 -3.020363
2011-07-18 12:13:02 51°26.061 2°58.474 17.7191 4.401375 33.457332 -3.020363
2011-07-18 12:14:02 51°26.08 2°58.811 17.6999 4.372336 33.243037 -3.020363
2011-07-18 12:15:02 51°26.108 2°59.142 17.6914 4.358957 33.139051 -3.020363
2011-07-18 12:16:02 51°26.126 2°59.471 17.692 4.350557 33.069602 -3.020363
2011-07-18 12:17:02 51°26.133 2°59.81 17.6902 4.345683 33.028186 -3.020363
2011-07-18 12:18:02 51°26.151 3°0.141 17.6888 4.34029 32.984311 -3.020363
2011-07-18 12:19:02 51°26.176 3°0.473 17.6883 4.334275 32.935156 -3.020363
2011-07-18 12:20:02 51°26.194 3°0.806 17.6827 4.330127 32.901215 -3.020363
2011-07-18 12:21:03 51°26.209 3°1.145 17.6818 4.325046 32.862569 -3.020363
2011-07-18 12:22:02 51°26.217 3°1.479 17.6765 4.32152 32.832631 -3.020363
2011-07-18 12:23:03 51°26.225 3°1.823 17.673 4.318306 32.808549 -3.020363
2011-07-18 12:24:02 51°26.235 3°2.162 17.6704 4.315298 32.786226 -3.020363
2011-07-18 12:25:03 51°26.249 3°2.509 17.6676 4.31198 32.76062 -3.020363
2011-07-18 12:26:02 51°26.264 3°2.851 17.6628 4.31001 32.745817 -3.020363
2011-07-18 12:27:02 51°26.27 3°3.201 17.6566 4.306899 32.722611 -3.020363
2011-07-18 12:28:03 51°26.284 3°3.554 17.6541 4.303892 32.702847 -3.020363
2011-07-18 12:29:03 51°26.303 3°3.903 17.6549 4.302544 32.690762 -3.020363
2011-07-18 12:30:02 51°26.31 3°4.253 17.6512 4.300366 32.672915 -3.020363
2011-07-18 12:31:02 51°26.327 3°4.605 17.6446 4.298914 32.663791 -3.020363
2011-07-18 12:32:02 51°26.327 3°4.957 17.6359 4.296115 32.64578 -3.020363
2011-07-18 12:33:02 51°26.32 3°5.308 17.6217 4.290826 32.607914 -3.020363
2011-07-18 12:34:02 51°26.315 3°5.662 17.6003 4.28305 32.555934 -3.020363
2011-07-18 12:35:02 51°26.31 3°6.017 17.5803 4.274651 32.502473 -3.020363
2011-07-18 12:36:02 51°26.31 3°6.371 17.5638 4.269052 32.469575 -3.020363
2011-07-18 12:37:02 51°26.307 3°6.727 17.5524 4.263868 32.435087 -3.020363
2011-07-18 12:38:02 51°26.3 3°7.084 17.5332 4.258476 32.401372 -3.020363
2011-07-18 12:39:02 51°26.302 3°7.441 17.5139 4.251633 32.357212 -3.020363
2011-07-18 12:40:03 51°26.34 3°7.796 17.4985 4.24479 32.315573 -3.020363
2011-07-18 12:41:03 51°26.397 3°8.111 17.4853 4.240643 32.290479 -3.020363
2011-07-18 12:42:02 51°26.412 3°8.323 17.4774 4.237325 32.270524 -3.020363
2011-07-18 12:43:02 51°26.456 3°8.415 17.4715 4.234941 32.259769 -3.020363
2011-07-18 12:44:02 51°26.465 3°8.462 17.468 4.234111 32.255889 -3.020363
2011-07-18 12:45:02 51°26.468 3°8.513 17.4628 4.233489 32.255678 -3.020363
2011-07-18 12:46:02 51°26.47 3°8.563 17.4647 4.232971 32.253808 -3.020363
2011-07-18 12:47:02 51°26.473 3°8.616 17.4669 4.233074 32.25215 -3.020363
2011-07-18 12:48:02 51°26.475 3°8.67 17.4656 4.233074 32.25088 -3.020363
2011-07-18 12:49:02 51°26.477 3°8.724 17.4677 4.232971 32.249363 -3.020363
2011-07-18 12:50:02 51°26.48 3°8.778 17.468 4.232867 32.249116 -3.020363
2011-07-18 12:51:02 51°26.506 3°8.775 17.4733 4.232971 32.247458 -3.020363
2011-07-18 12:52:02 51°26.481 3°8.74 17.4739 4.233282 32.248199 -3.020363
2011-07-18 12:53:03 51°26.411 3°8.724 17.472 4.233593 32.24767 -3.020363
2011-07-18 12:54:02 51°26.35 3°8.71 17.4735 4.233904 32.25095 -3.020363
2011-07-18 12:55:02 51°26.299 3°8.69 17.4746 4.234111 32.252714 -3.020363
2011-07-18 12:56:02 51°26.285 3°8.643 17.4742 4.234111 32.253349 -3.020363
2011-07-18 12:57:02 51°26.256 3°8.574 17.4764 4.234111 32.252714 -3.020363
2011-07-18 12:58:02 51°26.194 3°8.496 17.4811 4.234941 32.257864 -3.020363
2011-07-18 12:59:04 51°26.129 3°8.396 17.4807 4.236392 32.267034 -3.020363
2011-07-18 13:00:02 51°26.075 3°8.309 17.4857 4.237636 32.277616 -3.020363
2011-07-18 13:01:03 51°26.019 3°8.213 17.4895 4.239191 32.286395 -3.020363
2011-07-18 13:02:03 51°25.973 3°8.114 17.4948 4.240436 32.293799 -3.020363
2011-07-18 13:03:03 51°25.926 3°8.006 17.5023 4.242302 32.305221 -3.020363
2011-07-18 13:04:02 51°25.873 3°7.903 17.5074 4.244583 32.320167 -3.020363
2011-07-18 13:05:02 51°25.81 3°7.811 17.5126 4.246864 32.334475 -3.020363
2011-07-18 13:06:03 51°25.741 3°7.719 17.5191 4.249663 32.353824 -3.020363
2011-07-18 13:07:03 51°25.65 3°7.661 17.5213 4.252048 32.369645 -3.020363
2011-07-18 13:08:02 51°25.542 3°7.598 17.52 4.253603 32.381595 -3.020363
2011-07-18 13:09:02 51°25.387 3°7.527 17.5191 4.254744 32.391929 -3.020363
2011-07-18 13:10:03 51°25.22 3°7.533 17.5168 4.255366 32.397855 -3.020363
2011-07-18 13:11:02 51°25.048 3°7.635 17.5181 4.255884 32.404175 -3.020363
2011-07-18 13:12:02 51°24.937 3°7.95 17.5081 4.257025 32.411962 -3.020363
2011-07-18 13:13:02 51°24.833 3°8.227 17.5016 4.25661 32.415446 -3.020363
2011-07-18 13:14:02 51°24.745 3°8.46 17.4995 4.25744 32.426965 -3.020363
2011-07-18 13:15:02 51°24.651 3°8.71 17.4982 4.259306 32.444119 -3.020363
2011-07-18 13:16:02 51°24.545 3°8.942 17.4967 4.261173 32.460636 -3.020363
2011-07-18 13:17:02 51°24.462 3°9.099 17.4926 4.26138 32.465594 -3.020363
2011-07-18 13:18:02 51°24.325 3°9.305 17.4948 4.261587 32.469275 -3.020363
2011-07-18 13:19:02 51°24.16 3°9.556 17.4948 4.26418 32.488139 -3.020363
2011-07-18 13:20:02 51°24.01 3°9.843 17.4684 4.267083 32.516045 -3.020363
2011-07-18 13:21:02 51°23.846 3°10.094 17.4638 4.251738 32.405872 -3.020363
2011-07-18 13:22:02 51°23.674 3°10.319 17.4921 4.236807 32.274373 -3.020363
2011-07-18 13:23:02 51°23.503 3°10.536 17.5002 4.22986 32.196914 -3.020363
2011-07-18 13:24:03 51°23.332 3°10.772 17.5569 4.220632 32.10209 -3.020363
2011-07-18 13:25:03 51°23.193 3°11.065 17.5688 4.216484 32.033508 -3.020363
2011-07-18 13:26:03 51°23.072 3°11.384 17.5739 4.211922 31.98666 -3.020363
2011-07-18 13:27:02 51°22.927 3°11.661 17.5736 4.20933 31.961553 -3.020363
2011-07-18 13:28:02 51°22.779 3°11.942 17.5716 4.207879 31.948625 -3.020363
2011-07-18 13:29:02 51°22.647 3°12.259 17.5343 4.20819 31.957532 -3.020363
2011-07-18 13:30:02 51°22.596 3°12.658 17.5351 4.203421 31.945956 -3.020363
2011-07-18 13:31:03 51°22.575 3°13.046 17.5489 4.19409 31.858058 -3.020363
2011-07-18 13:32:03 51°22.618 3°13.266 17.5481 4.190151 31.821539 -3.020363
2011-07-18 13:33:02 51°22.664 3°13.364 17.5471 4.190151 31.822164 -3.020363
2011-07-18 13:34:02 51°22.68 3°13.461 17.5844 4.19212 31.825109 -3.020363
2011-07-18 13:35:03 51°22.693 3°13.563 17.5447 4.193365 31.836274 -3.020363
2011-07-18 13:36:02 51°22.703 3°13.666 17.541 4.191499 31.834837 -3.020363
2011-07-18 13:37:03 51°22.711 3°13.771 17.539 4.191395 31.836459 -3.020363
2011-07-18 13:38:02 51°22.719 3°13.874 17.5418 4.191499 31.838589 -3.020363
2011-07-18 13:39:02 51°22.727 3°13.977 17.5392 4.191602 31.840093 -3.020363
2011-07-18 13:40:03 51°22.768 3°14.042 17.5443 4.191499 31.838589 -3.020363
2011-07-18 13:41:02 51°22.792 3°14.026 17.5428 4.192224 31.844116 -3.020363
2011-07-18 13:42:03 51°22.775 3°13.977 17.5446 4.192121 31.840735 -3.020363
2011-07-18 13:43:02 51°22.761 3°13.882 17.5443 4.192121 31.84011 -3.020363
2011-07-18 13:44:03 51°22.745 3°13.759 17.5367 4.193054 31.848644 -3.020363
2011-07-18 13:45:02 51°22.722 3°13.647 17.5271 4.19606 31.881646 -3.020363
2011-07-18 13:46:02 51°22.702 3°13.526 17.5232 4.19886 31.911026 -3.020363
2011-07-18 13:47:02 51°22.682 3°13.407 17.5249 4.199482 31.918812 -3.020363
2011-07-18 13:48:02 51°22.661 3°13.297 17.5265 4.199274 31.915798 -3.020363
2011-07-18 13:49:03 51°22.635 3°13.181 17.5265 4.198963 31.911906 -3.020363
2011-07-18 13:50:03 51°22.608 3°13.061 17.5284 4.199274 31.914544 -3.020363
2011-07-18 13:51:02 51°22.591 3°12.948 17.529 4.198963 31.910652 -3.020363
2011-07-18 13:52:02 51°22.568 3°12.835 17.5242 4.199274 31.912663 -3.020363
2011-07-18 13:53:02 51°22.543 3°12.718 17.5102 4.20197 31.942432 -3.020363
2011-07-18 13:54:02 51°22.522 3°12.596 17.4962 4.203836 31.96832 -3.020363
2011-07-18 13:55:02 51°22.5 3°12.455 17.4887 4.204873 31.985296 -3.020363
2011-07-18 13:56:02 51°22.47 3°12.259 17.4682 4.206221 32.005554 -3.020363
2011-07-18 13:57:02 51°22.432 3°12.032 17.4535 4.209332 32.048368 -3.020363
2011-07-18 13:58:03 51°22.394 3°11.818 17.4551 4.207984 32.043854 -3.020363
2011-07-18 13:59:03 51°22.361 3°11.609 17.4629 4.203941 32.005705 -3.020363
2011-07-18 14:00:02 51°22.331 3°11.388 17.4633 4.203319 31.995379 -3.020363
2011-07-18 14:01:02 51°22.298 3°11.158 17.4608 4.202904 31.994375 -3.020363
2011-07-18 14:02:03 51°22.269 3°10.925 17.4589 4.202178 31.990098 -3.020363
2011-07-18 14:03:02 51°22.241 3°10.698 17.4584 4.201141 31.981289 -3.020363
2011-07-18 14:04:03 51°22.212 3°10.466 17.4532 4.20166 31.987583 -3.020363
2011-07-18 14:05:03 51°22.173 3°10.254 17.4543 4.204667 32.016285 -3.020363
2011-07-18 14:06:02 51°22.093 3°10.078 17.5776 4.207672 32.00277 -3.020363
2011-07-18 14:07:02 51°22.005 3°9.88 17.478 4.212234 32.020723 -3.020363
2011-07-18 14:08:02 51°21.923 3°9.671 17.4607 4.203941 32.006966 -3.020363
2011-07-18 14:09:02 51°21.841 3°9.465 17.4524 4.201971 31.999678 -3.020363
2011-07-18 14:10:03 51°21.762 3°9.257 17.4463 4.201556 32.003718 -3.020363
2011-07-18 14:11:02 51°21.688 3°9.041 17.4477 4.202386 32.013293 -3.020363
2011-07-18 14:12:02 51°21.64 3°8.8 17.4508 4.206844 32.049308 -3.020363
2011-07-18 14:13:02 51°21.592 3°8.564 17.4575 4.209436 32.070087 -3.020363
2011-07-18 14:14:02 51°21.534 3°8.329 17.4548 4.213583 32.102828 -3.020363
2011-07-18 14:15:02 51°21.473 3°8.098 17.4483 4.216797 32.132698 -3.020363
2011-07-18 14:16:02 51°21.415 3°7.874 17.4367 4.221359 32.176581 -3.020363
2011-07-18 14:17:02 51°21.36 3°7.656 17.435 4.223329 32.199692 -3.020363
2011-07-18 14:18:03 51°21.307 3°7.415 17.4266 4.222707 32.198205 -3.020363
2011-07-18 14:19:02 51°21.25 3°7.194 17.4286 4.218353 32.164943 -3.020363
2011-07-18 14:20:03 51°21.196 3°6.963 17.4341 4.213998 32.127879 -3.020363
2011-07-18 14:21:02 51°21.141 3°6.732 17.4324 4.207985 32.072911 -3.020363
2011-07-18 14:22:02 51°21.086 3°6.498 17.4376 4.201868 32.01898 -3.020363
2011-07-18 14:23:02 51°21.036 3°6.267 17.4332 4.200831 32.010794 -3.020363
2011-07-18 14:24:02 51°20.982 3°6.039 17.4215 4.203527 32.038143 -3.020363
2011-07-18 14:25:02 51°20.926 3°5.811 17.4119 4.208503 32.087443 -3.020363
2011-07-18 14:26:02 51°20.813 3°5.644 17.4113 4.213272 32.129938 -3.020363
2011-07-18 14:27:02 51°20.665 3°5.538 17.3928 4.219908 32.191513 -3.020363
2011-07-18 14:28:02 51°20.511 3°5.445 17.3575 4.238571 32.368397 -3.020363
2011-07-18 14:29:02 51°20.362 3°5.337 17.3394 4.267189 32.633839 -3.020363
2011-07-18 14:30:02 51°20.241 3°5.178 17.3432 4.287098 32.814359 -3.020363
2011-07-18 14:31:03 51°20.11 3°5.044 17.3293 4.302859 32.962234 -3.020363
2011-07-18 14:32:02 51°19.962 3°4.951 17.3178 4.316444 33.082487 -3.020363
2011-07-18 14:33:02 51°19.814 3°4.842 17.3111 4.33314 33.234766 -3.020363
2011-07-18 14:34:02 51°19.673 3°4.72 17.298 4.346311 33.35697 -3.020363
2011-07-18 14:35:02 51°19.536 3°4.583 17.2913 4.346622 33.362282 -3.020363
2011-07-18 14:36:02 51°19.395 3°4.444 17.2959 4.339985 33.310607 -3.020363
2011-07-18 14:37:03 51°19.264 3°4.28 17.2896 4.330652 33.229872 -3.020363
2011-07-18 14:38:02 51°19.149 3°4.095 17.2842 4.317896 33.125734 -3.020363
2011-07-18 14:39:02 51°19.036 3°3.9 17.2966 4.299749 32.967563 -3.020363
2011-07-18 14:40:02 51°18.942 3°3.692 17.3018 4.288965 32.870622 -3.020363
2011-07-18 14:41:02 51°18.841 3°3.486 17.3017 4.286269 32.844934 -3.020363
2011-07-18 14:42:02 51°18.758 3°3.264 17.2957 4.293527 32.907091 -3.020363
2011-07-18 14:43:02 51°18.688 3°3.027 17.2938 4.306904 33.0243 -3.020363
2011-07-18 14:44:02 51°18.602 3°2.804 17.29 4.319867 33.139348 -3.020363
2011-07-18 14:45:03 51°18.513 3°2.594 17.2895 4.332207 33.247826 -3.020363
2011-07-18 14:46:03 51°18.429 3°2.378 17.2742 4.347141 33.383924 -3.020363
2011-07-18 14:47:02 51°18.347 3°2.161 17.2685 4.369749 33.582801 -3.020363
2011-07-18 14:48:02 51°18.262 3°1.945 17.2616 4.38624 33.729938 -3.020363
2011-07-18 14:49:02 51°18.176 3°1.734 17.2573 4.394226 33.80267 -3.020363
2011-07-18 14:50:02 51°18.092 3°1.515 17.2617 4.398063 33.837712 -3.020363
2011-07-18 14:51:02 51°18.004 3°1.304 17.2551 4.400242 33.860491 -3.020363
2011-07-18 14:52:02 51°17.916 3°1.087 17.2533 4.402109 33.876565 -3.020363
2011-07-18 14:53:02 51°17.827 3°0.868 17.2509 4.40242 33.880588 -3.020363
2011-07-18 14:54:02 51°17.743 3°0.642 17.25 4.404909 33.904041 -3.020363
2011-07-18 14:55:02 51°17.652 3°0.423 17.2546 4.407709 33.927487 -3.020363
2011-07-18 14:56:02 51°17.559 3°0.205 17.248 4.409991 33.947814 -3.020363
2011-07-18 14:57:02 51°17.469 2°59.983 17.2475 4.408747 33.937767 -3.020363
2011-07-18 14:58:02 51°17.383 2°59.753 17.2505 4.412169 33.969272 -3.020363
2011-07-18 14:59:02 51°17.291 2°59.536 17.2568 4.414866 33.987785 -3.020363
2011-07-18 15:00:03 51°17.19 2°59.316 17.256 4.419845 34.027979 -3.020363
2011-07-18 15:01:02 51°17.106 2°59.1 17.2554 4.427416 34.093902 -3.020363
2011-07-18 15:02:02 51°17.018 2°58.872 17.2637 4.435507 34.16364 -3.020363
2011-07-18 15:03:02 51°16.92 2°58.651 17.2622 4.446709 34.256841 -3.020363
2011-07-18 15:04:02 51°16.827 2°58.43 17.2575 4.45397 34.317426 -3.020363
2011-07-18 15:05:02 51°16.745 2°58.197 17.2678 4.459053 34.360592 -3.020363
2011-07-18 15:06:02 51°16.661 2°57.962 17.2614 4.460713 34.375593 -3.020363
2011-07-18 15:07:02 51°16.57 2°57.735 17.2604 4.461646 34.38433 -3.020363
2011-07-18 15:08:02 51°16.492 2°57.498 17.2587 4.462061 34.389958 -3.020363
2011-07-18 15:09:02 51°16.403 2°57.275 17.2567 4.461854 34.390897 -3.020363
2011-07-18 15:10:02 51°16.317 2°57.046 17.2539 4.461231 34.384844 -3.020363
2011-07-18 15:11:02 51°16.238 2°56.807 17.2557 4.46009 34.374997 -3.020363
2011-07-18 15:12:02 51°16.152 2°56.57 17.2527 4.459987 34.376148 -3.020363
2011-07-18 15:13:02 51°16.063 2°56.335 17.2447 4.46092 34.387617 -3.020363
2011-07-18 15:14:02 51°15.979 2°56.095 17.2469 4.46258 34.408772 -3.020363
2011-07-18 15:15:02 51°15.898 2°55.857 17.2588 4.463099 34.407102 -3.020363
2011-07-18 15:16:02 51°15.808 2°55.625 17.2631 4.461646 34.38706 -3.020363
2011-07-18 15:17:02 51°15.722 2°55.386 17.2656 4.461439 34.383905 -3.020363
2011-07-18 15:18:02 51°15.627 2°55.16 17.2655 4.460194 34.367709 -3.020363
2011-07-18 15:19:02 51°15.522 2°54.941 17.2716 4.459571 34.361658 -3.020363
2011-07-18 15:20:02 51°15.405 2°54.734 17.267 4.459779 34.362084 -3.020363
2011-07-18 15:21:02 51°15.293 2°54.519 17.2603 4.460194 34.367709 -3.020363
2011-07-18 15:22:02 51°15.143 2°54.411 17.2538 4.461231 34.383479 -3.020363
2011-07-18 15:23:02 51°14.979 2°54.577 17.2552 4.462787 34.398954 -3.020363
2011-07-18 15:24:02 51°14.816 2°54.768 17.2613 4.464343 34.4117 -3.020363
2011-07-18 15:25:02 51°14.653 2°54.962 17.2664 4.456771 34.341586 -3.020363
2011-07-18 15:26:02 51°14.475 2°55.106 17.2793 4.439967 34.19192 -3.020363
2011-07-18 15:27:03 51°14.319 2°55.252 17.3764 4.373897 33.596485 -3.020363
2011-07-18 15:28:02 51°14.195 2°55.362 17.451 4.276831 32.687167 -3.020363
2011-07-18 15:29:02 51°14.076 2°55.454 17.5221 4.227787 32.209708 -3.020363
2011-07-18 15:30:02 51°13.959 2°55.538 17.5587 4.199586 31.929732 -3.020363
2011-07-18 15:31:02 51°13.856 2°55.613 17.5776 4.168484 31.634259 -3.020363
2011-07-18 15:32:03 51°13.764 2°55.707 17.6028 4.160605 31.557028 -3.020363
2011-07-18 15:33:03 51°13.7 2°55.818 17.6561 4.133548 31.303647 -3.020363
2011-07-18 15:34:02 51°13.661 2°55.904 17.6596 4.104212 31.021379 -3.020363
2011-07-18 15:35:02 51°13.638 2°55.985 17.8645 3.453174 25.439889 -3.020363
2011-07-18 15:36:02 51°13.634 2°56.015 17.9453 0.250428 1.338969 -3.020363